Time;durP1;ratioP1;P1;durP2;ratioP2;P2;SDS_P1;SDS_P2;PMS_P1;PMS_P2;Temp;Humidity;BMP_temperature;BMP_pressure;BME280_temperature;BME280_humidity;BME280_pressure;Samples;Min_cycle;Max_cycle;Signal;HPM_P1;HPM_P2
2023/10/01 00:35:30;;;;;;;17.83;6.63;;;;;;;;;;6259734;22;20512;-89
2023/10/01 00:38:16;;;;;;;13.10;5.90;;;;;;;;;;6278805;22;20056;-91
2023/10/01 00:49:33;;;;;;;;;;;;;;;;;;;;;
2023/10/01 01:09:41;;;;;;;18.20;6.00;;;;;;;;;;6336633;22;20017;-90
2023/10/01 01:12:25;;;;;;;14.77;6.25;;;;;;;;;;6311837;22;20034;-89
2023/10/01 01:15:12;;;;;;;13.10;6.40;;;;;;;;;;6327984;22;20015;-88
2023/10/01 01:18:07;;;;;;;11.70;6.45;;;;;;;;;;6329127;22;20041;-89
2023/10/01 01:21:25;;;;;;;11.15;6.28;;;;;;;;;;6335281;22;20027;-90
2023/10/01 01:30:17;;;;;;;21.80;7.43;;;;;;;;;;6337861;22;20050;-89
2023/10/01 01:36:35;;;;;;;13.25;7.32;;;;;;;;;;6336285;22;20041;-89
2023/10/01 01:39:41;;;;;;;12.15;7.85;;;;;;;;;;6309727;22;20012;-90
2023/10/01 01:46:03;;;;;;;21.60;8.63;;;;;;;;;;6336152;22;20052;-90
2023/10/01 01:48:52;;;;;;;15.57;8.27;;;;;;;;;;6309738;22;20238;-88
2023/10/01 01:58:24;;;;;;;20.42;8.98;;;;;;;;;;6335844;22;20051;-91
2023/10/01 02:07:36;;;;;;;17.73;8.73;;;;;;;;;;6304701;22;20002;-89
2023/10/01 02:10:07;;;;;;;15.23;8.93;;;;;;;;;;6278828;22;20038;-90
2023/10/01 02:12:54;;;;;;;20.63;9.65;;;;;;;;;;6282000;22;20031;-90
2023/10/01 02:15:38;;;;;;;19.13;9.73;;;;;;;;;;6277924;22;20039;-90
2023/10/01 02:18:21;;;;;;;19.08;9.73;;;;;;;;;;6281011;22;20011;-90
2023/10/01 02:20:52;;;;;;;18.13;9.75;;;;;;;;;;6301275;22;20061;-91
2023/10/01 02:23:33;;;;;;;16.67;9.18;;;;;;;;;;6279518;22;20012;-90
2023/10/01 02:26:15;;;;;;;19.67;10.23;;;;;;;;;;6280396;22;20006;-90
2023/10/01 02:28:58;;;;;;;17.90;9.80;;;;;;;;;;6277991;22;20063;-90
2023/10/01 02:31:47;;;;;;;21.08;10.68;;;;;;;;;;6279185;22;20011;-91
2023/10/01 02:34:19;;;;;;;18.33;9.95;;;;;;;;;;6278376;22;20024;-91
2023/10/01 02:36:58;;;;;;;25.23;11.25;;;;;;;;;;6280186;22;20038;-89
2023/10/01 02:39:51;;;;;;;20.30;11.70;;;;;;;;;;6280201;22;19999;-90
2023/10/01 02:42:31;;;;;;;10.73;4.78;;;;;;;;;;6299488;22;20011;-89
2023/10/01 02:45:32;;;;;;;22.55;11.25;;;;;;;;;;6332458;22;20003;-90
2023/10/01 02:48:19;;;;;;;26.58;11.57;;;;;;;;;;6311374;22;20004;-90
2023/10/01 02:57:12;;;;;;;18.38;10.27;;;;;;;;;;6302031;22;20059;-91
2023/10/01 03:00:31;;;;;;;22.42;11.93;;;;;;;;;;6278180;22;20011;-90
2023/10/01 03:09:39;;;;;;;23.77;11.15;;;;;;;;;;6302543;22;20038;-89
2023/10/01 03:12:35;;;;;;;23.95;11.18;;;;;;;;;;6302152;22;20046;-90
2023/10/01 03:15:24;;;;;;;21.38;11.27;;;;;;;;;;6279391;22;20003;-91
2023/10/01 03:18:34;;;;;;;22.75;12.63;;;;;;;;;;6279834;22;20055;-90
2023/10/01 03:21:40;;;;;;;19.52;11.30;;;;;;;;;;6304024;22;20002;-90
2023/10/01 03:24:25;;;;;;;16.23;11.40;;;;;;;;;;6301787;22;20046;-89
2023/10/01 03:27:39;;;;;;;20.23;11.43;;;;;;;;;;6278584;22;19999;-90
2023/10/01 03:30:23;;;;;;;21.58;11.25;;;;;;;;;;6278634;22;19995;-90
2023/10/01 03:33:01;;;;;;;22.13;13.18;;;;;;;;;;6305476;22;20057;-91
2023/10/01 03:39:26;;;;;;;25.42;13.40;;;;;;;;;;6303821;22;20002;-90
2023/10/01 03:42:13;;;;;;;20.20;12.45;;;;;;;;;;6279206;22;20022;-90
2023/10/01 03:48:19;;;;;;;22.30;12.65;;;;;;;;;;6303925;22;20067;-90
2023/10/01 03:51:03;;;;;;;21.75;12.25;;;;;;;;;;6278763;22;20075;-91
2023/10/01 03:53:51;;;;;;;23.40;13.50;;;;;;;;;;6301405;22;20034;-90
2023/10/01 03:56:45;;;;;;;23.55;13.18;;;;;;;;;;6245380;22;20011;-91
2023/10/01 03:59:32;;;;;;;20.73;13.80;;;;;;;;;;6298144;22;20056;-90
2023/10/01 04:02:42;;;;;;;;;;;;;;;;;;6310388;22;20063;-90
2023/10/01 04:05:37;;;;;;;30.40;13.30;;;;;;;;;;6335366;22;19925;-89
2023/10/01 04:08:55;;;;;;;22.35;12.95;;;;;;;;;;6309840;22;20055;-91
2023/10/01 04:11:49;;;;;;;24.35;13.98;;;;;;;;;;6292546;22;20042;-88
2023/10/01 04:14:34;;;;;;;24.00;13.00;;;;;;;;;;6302195;22;20007;-89
2023/10/01 04:22:40;;;;;;;;;;;;;;;;;;;;;
2023/10/01 04:25:22;;;;;;;26.52;14.10;;;;;;;;;;6326607;22;20031;-90
2023/10/01 04:28:09;;;;;;;23.58;13.60;;;;;;;;;;6311837;22;20007;-90
2023/10/01 04:31:09;;;;;;;27.63;14.73;;;;;;;;;;6311127;22;20026;-90
2023/10/01 04:33:59;;;;;;;29.95;14.50;;;;;;;;;;6329331;22;20014;-91
2023/10/01 04:36:44;;;;;;;23.67;13.38;;;;;;;;;;6311480;22;20004;-90
2023/10/01 04:39:43;;;;;;;26.98;15.73;;;;;;;;;;6311846;22;20052;-89
2023/10/01 04:42:25;;;;;;;23.83;14.40;;;;;;;;;;6312231;22;20010;-90
2023/10/01 04:45:22;;;;;;;26.15;14.82;;;;;;;;;;6292277;22;20011;-90
2023/10/01 04:54:01;;;;;;;26.08;13.90;;;;;;;;;;6324409;22;20015;-89
2023/10/01 05:05:09;;;;;;;27.85;15.43;;;;;;;;;;6302973;22;20003;-89
2023/10/01 05:08:21;;;;;;;26.20;15.60;;;;;;;;;;6306548;22;20003;-89
2023/10/01 05:11:21;;;;;;;30.13;17.58;;;;;;;;;;6172326;22;20133;-89
2023/10/01 05:16:47;;;;;;;34.85;17.40;;;;;;;;;;6299459;22;20252;-88
2023/10/01 05:22:20;;;;;;;32.85;17.35;;;;;;;;;;6305371;22;20051;-89
2023/10/01 05:31:24;;;;;;;26.65;16.70;;;;;;;;;;6293580;22;20094;-90
2023/10/01 05:38:13;;;;;;;30.88;18.23;;;;;;;;;;6335779;22;19998;-90
2023/10/01 05:52:09;;;;;;;27.27;15.27;;;;;;;;;;6334559;22;20069;-90
2023/10/01 05:54:53;;;;;;;;;;;;;;;;;;6311721;22;20037;-90
2023/10/01 05:57:51;;;;;;;;;;;;;;;;;;;;;
2023/10/01 06:01:19;;;;;;;29.00;16.45;;;;;;;;;;6329911;22;20026;-90
2023/10/01 06:12:03;;;;;;;33.33;16.23;;;;;;;;;;6284420;22;20023;-90
2023/10/01 06:15:32;;;;;;;29.15;16.80;;;;;;;;;;6250823;22;20012;-89
2023/10/01 06:18:28;;;;;;;31.75;15.18;;;;;;;;;;6250072;22;20060;-89
2023/10/01 06:21:15;;;;;;;27.17;14.68;;;;;;;;;;6248534;22;20026;-90
2023/10/01 06:24:29;;;;;;;27.15;15.23;;;;;;;;;;6249035;22;20015;-90
2023/10/01 06:52:49;;;;;;;25.95;13.70;;;;;;;;;;6275397;22;20007;-89
2023/10/01 06:55:32;;;;;;;24.63;13.57;;;;;;;;;;6275586;22;20003;-90
2023/10/01 07:20:36;;;;;;;25.98;12.43;;;;;;;;;;6268287;22;20734;-89
2023/10/01 07:58:26;;;;;;;30.20;15.10;;;;;;;;;;6328673;22;20048;-89
2023/10/01 08:19:53;;;;;;;26.37;13.23;;;;;;;;;;6307551;22;20037;-90
2023/10/01 08:23:22;;;;;;;;;;;;;;;;;;;;;
2023/10/01 08:26:56;;;;;;;;;;;;;;;;;;;;;
